Time;durP1;ratioP1;P1;durP2;ratioP2;P2;SDS_P1;SDS_P2;PMS_P1;PMS_P2;Temp;Humidity;BMP_temperature;BMP_pressure;BME280_temperature;BME280_humidity;BME280_pressure;Samples;Min_cycle;Max_cycle;Signal;HPM_P1;HPM_P2
2022/07/26 00:02:09;;;;;;;4.70;2.30;;;19.90;99.90;;;;;;4952848;28;20228;-74
2022/07/26 00:04:34;;;;;;;2.38;2.13;;;19.80;99.90;;;;;;4938350;29;20277;-74
2022/07/26 00:07:00;;;;;;;3.10;2.40;;;19.80;99.90;;;;;;4936792;29;20181;-74
2022/07/26 00:09:26;;;;;;;2.95;2.47;;;19.80;99.90;;;;;;4936853;29;20201;-74
2022/07/26 00:11:51;;;;;;;3.90;2.42;;;19.80;99.90;;;;;;4937251;29;20209;-74
2022/07/26 00:14:17;;;;;;;2.90;2.28;;;19.60;99.90;;;;;;4937116;29;20178;-74
2022/07/26 00:16:43;;;;;;;6.15;2.40;;;19.60;99.90;;;;;;4952618;28;20260;-75
2022/07/26 00:19:08;;;;;;;3.80;2.30;;;19.60;99.90;;;;;;4937157;29;20181;-74
2022/07/26 00:21:36;;;;;;;2.60;2.30;;;19.50;99.90;;;;;;4952625;29;20190;-74
2022/07/26 00:24:02;;;;;;;5.07;2.65;;;19.50;99.90;;;;;;4938258;29;20532;-74
2022/07/26 00:26:28;;;;;;;4.43;2.35;;;19.50;99.90;;;;;;4936696;29;20185;-74
2022/07/26 00:28:54;;;;;;;4.15;2.33;;;19.40;99.90;;;;;;4936758;29;20178;-74
2022/07/26 00:31:20;;;;;;;5.22;2.40;;;19.40;99.90;;;;;;4936497;29;20884;-74
2022/07/26 00:33:45;;;;;;;3.45;2.42;;;19.50;99.90;;;;;;4936716;29;20206;-74
2022/07/26 00:36:11;;;;;;;2.97;2.35;;;19.40;99.90;;;;;;4952446;28;20185;-74
2022/07/26 00:38:37;;;;;;;2.65;2.30;;;19.30;99.90;;;;;;4936428;29;20576;-74
2022/07/26 00:41:04;;;;;;;6.18;2.45;;;19.30;99.90;;;;;;4952208;28;20213;-74
2022/07/26 00:43:30;;;;;;;4.38;2.22;;;19.50;99.90;;;;;;4936551;29;20205;-74
2022/07/26 00:45:56;;;;;;;3.03;2.65;;;19.50;99.90;;;;;;4952555;29;20683;-74
2022/07/26 00:48:22;;;;;;;5.47;2.35;;;19.60;99.90;;;;;;4952300;28;20211;-75
2022/07/26 00:50:48;;;;;;;4.03;2.42;;;19.70;99.90;;;;;;4952140;28;20201;-75
2022/07/26 00:53:13;;;;;;;2.88;2.25;;;19.50;99.90;;;;;;4952114;29;20664;-74
2022/07/26 00:55:39;;;;;;;4.00;2.75;;;19.20;99.90;;;;;;4937271;29;20185;-74
2022/07/26 00:58:05;;;;;;;2.55;2.30;;;19.20;99.90;;;;;;4951980;28;20173;-74
2022/07/26 01:00:31;;;;;;;3.08;2.55;;;19.10;99.90;;;;;;4936036;29;20214;-74
2022/07/26 01:02:59;;;;;;;3.63;2.17;;;19.10;99.90;;;;;;4951630;29;20213;-74
2022/07/26 01:05:26;;;;;;;4.30;2.58;;;18.90;99.90;;;;;;4936101;29;20173;-74
2022/07/26 01:07:52;;;;;;;2.63;2.30;;;18.80;99.90;;;;;;4951668;28;20685;-74
2022/07/26 01:10:19;;;;;;;3.22;2.20;;;18.70;99.90;;;;;;4951796;28;20207;-74
2022/07/26 01:12:45;;;;;;;3.28;2.60;;;18.50;99.90;;;;;;4935774;29;20208;-75
2022/07/26 01:15:12;;;;;;;3.90;2.53;;;18.40;99.90;;;;;;4951915;29;20177;-74
2022/07/26 01:17:38;;;;;;;3.03;2.50;;;18.40;99.90;;;;;;4935776;29;20255;-74
2022/07/26 01:20:06;;;;;;;4.18;2.80;;;18.40;99.90;;;;;;4951682;29;20206;-74
2022/07/26 01:22:32;;;;;;;4.03;2.60;;;18.20;99.90;;;;;;4935509;29;20206;-74
2022/07/26 01:24:57;;;;;;;5.43;2.70;;;18.20;99.90;;;;;;4935648;29;20181;-74
2022/07/26 01:27:23;;;;;;;4.87;2.50;;;18.30;99.90;;;;;;4951374;29;20178;-75
2022/07/26 01:29:50;;;;;;;2.93;2.60;;;18.40;99.90;;;;;;4951498;28;20178;-74
2022/07/26 01:32:17;;;;;;;4.80;2.77;;;18.40;99.90;;;;;;4951548;28;20285;-74
2022/07/26 01:34:42;;;;;;;5.00;2.47;;;18.50;99.90;;;;;;4951523;29;20182;-74
2022/07/26 01:37:08;;;;;;;4.30;2.63;;;18.70;99.90;;;;;;4936427;29;20189;-74
2022/07/26 01:39:33;;;;;;;2.90;2.37;;;18.70;99.90;;;;;;4935301;29;20257;-74
2022/07/26 01:41:59;;;;;;;4.40;2.40;;;18.70;99.90;;;;;;4935204;29;20202;-75
2022/07/26 01:44:25;;;;;;;3.37;2.70;;;18.80;99.90;;;;;;4935370;29;20196;-74
2022/07/26 01:46:50;;;;;;;4.28;2.50;;;18.90;99.90;;;;;;4951034;28;20182;-75
2022/07/26 01:49:16;;;;;;;4.57;2.50;;;19.00;99.90;;;;;;4935253;29;20185;-75
2022/07/26 01:51:42;;;;;;;3.00;2.70;;;19.00;99.90;;;;;;4935736;29;20236;-74
2022/07/26 01:54:08;;;;;;;3.20;2.90;;;19.00;99.90;;;;;;4951101;28;20182;-75
2022/07/26 01:56:33;;;;;;;3.00;2.70;;;19.00;99.90;;;;;;4950989;29;20170;-75
2022/07/26 01:58:59;;;;;;;4.55;2.80;;;19.00;99.90;;;;;;4950977;29;20192;-74
2022/07/26 02:01:25;;;;;;;3.70;3.08;;;19.00;99.90;;;;;;4950636;28;20217;-74
2022/07/26 02:03:50;;;;;;;4.35;2.70;;;19.10;99.90;;;;;;4950898;29;20170;-74
2022/07/26 02:06:16;;;;;;;4.13;2.50;;;19.10;99.90;;;;;;4934554;29;20189;-74
2022/07/26 02:08:41;;;;;;;3.50;2.53;;;19.10;99.90;;;;;;4936242;29;20552;-74
2022/07/26 02:11:07;;;;;;;3.70;2.58;;;19.00;99.90;;;;;;4950678;28;20202;-74
2022/07/26 02:13:35;;;;;;;5.07;2.80;;;18.90;99.90;;;;;;4950747;29;20178;-74
2022/07/26 02:16:03;;;;;;;3.60;2.58;;;18.70;99.90;;;;;;4950630;28;20188;-75
2022/07/26 02:18:30;;;;;;;4.78;3.05;;;18.70;99.90;;;;;;4950623;28;20182;-75
2022/07/26 02:20:57;;;;;;;3.17;2.72;;;18.70;99.90;;;;;;4950466;28;20206;-74
2022/07/26 02:23:23;;;;;;;2.78;2.50;;;18.80;99.90;;;;;;4934698;29;20174;-75
2022/07/26 02:25:48;;;;;;;2.73;2.30;;;18.90;99.90;;;;;;4950626;29;20563;-75
2022/07/26 02:28:14;;;;;;;4.15;2.60;;;19.00;99.90;;;;;;4934414;29;20182;-75
2022/07/26 02:30:41;;;;;;;4.60;2.90;;;19.10;99.90;;;;;;4934756;29;20253;-74
2022/07/26 02:33:07;;;;;;;3.55;2.40;;;19.20;99.90;;;;;;4934420;29;20202;-75
2022/07/26 02:35:33;;;;;;;2.90;2.47;;;19.10;99.90;;;;;;4950348;29;20188;-75
2022/07/26 02:38:04;;;;;;;4.90;3.05;;;19.20;99.90;;;;;;4934254;29;20194;-75
2022/07/26 02:40:30;;;;;;;4.15;2.67;;;19.10;99.90;;;;;;4934287;29;20205;-75
2022/07/26 02:42:55;;;;;;;4.28;2.40;;;19.20;99.90;;;;;;4950173;28;20228;-75
2022/07/26 02:45:21;;;;;;;4.10;2.65;;;19.00;99.90;;;;;;4950165;29;20196;-75
2022/07/26 02:47:49;;;;;;;2.63;2.22;;;19.00;99.90;;;;;;4933906;29;20182;-75
2022/07/26 02:50:19;;;;;;;3.95;2.65;;;18.90;99.90;;;;;;4935288;29;20542;-74
2022/07/26 02:52:48;;;;;;;3.95;2.58;;;18.70;99.90;;;;;;4935174;29;20190;-74
2022/07/26 02:55:21;;;;;;;3.38;2.47;;;18.60;99.90;;;;;;4934628;29;20193;-75
2022/07/26 02:57:48;;;;;;;3.70;2.40;;;18.60;99.90;;;;;;4949890;29;20286;-74
2022/07/26 03:00:16;;;;;;;3.77;2.50;;;18.60;99.90;;;;;;4949844;29;20213;-75
2022/07/26 03:02:43;;;;;;;4.37;2.87;;;18.70;99.90;;;;;;4934830;29;20301;-75
2022/07/26 03:05:09;;;;;;;2.90;2.30;;;18.70;99.90;;;;;;4949255;28;20181;-74
2022/07/26 03:07:35;;;;;;;3.97;2.38;;;18.50;99.90;;;;;;4933721;29;20182;-74
2022/07/26 03:10:00;;;;;;;4.97;2.63;;;18.40;99.90;;;;;;4933947;29;20189;-75
2022/07/26 03:12:26;;;;;;;4.57;2.50;;;18.30;99.90;;;;;;4935023;29;20201;-75
2022/07/26 03:14:52;;;;;;;4.77;2.60;;;18.20;99.90;;;;;;4949668;28;20652;-75
2022/07/26 03:17:18;;;;;;;3.90;2.90;;;18.20;99.90;;;;;;4949556;29;20178;-75
2022/07/26 03:19:43;;;;;;;3.33;2.73;;;18.20;99.90;;;;;;4934014;29;20743;-74
2022/07/26 03:22:10;;;;;;;3.23;2.50;;;18.10;99.90;;;;;;4949786;28;20296;-74
2022/07/26 03:24:35;;;;;;;3.20;2.70;;;18.00;99.90;;;;;;4949786;29;20294;-74
2022/07/26 03:27:01;;;;;;;4.27;2.57;;;18.00;99.90;;;;;;4949587;28;20195;-74
2022/07/26 03:29:26;;;;;;;5.13;2.47;;;18.10;99.90;;;;;;4949542;29;20277;-75
2022/07/26 03:31:52;;;;;;;4.50;2.50;;;18.20;99.90;;;;;;4933856;29;20213;-75
2022/07/26 03:34:18;;;;;;;3.67;2.70;;;18.30;99.90;;;;;;4949466;28;20217;-74
2022/07/26 03:36:44;;;;;;;2.93;2.23;;;18.30;99.90;;;;;;4949487;29;20269;-74
2022/07/26 03:39:09;;;;;;;4.50;2.60;;;18.30;99.90;;;;;;4933629;29;20752;-74
2022/07/26 03:41:35;;;;;;;3.70;2.60;;;18.30;99.90;;;;;;4933558;29;20292;-75
2022/07/26 03:44:01;;;;;;;3.70;2.60;;;18.20;99.90;;;;;;4933648;29;20253;-75
2022/07/26 03:46:26;;;;;;;2.87;2.33;;;18.30;99.90;;;;;;4933464;29;20182;-74
2022/07/26 03:48:52;;;;;;;3.80;2.50;;;18.30;99.90;;;;;;4934755;29;20244;-74
2022/07/26 03:51:18;;;;;;;3.07;2.70;;;18.10;99.90;;;;;;4933307;29;20226;-75
2022/07/26 03:53:43;;;;;;;4.67;2.47;;;18.20;99.90;;;;;;4949561;28;20189;-74
2022/07/26 03:58:54;;;;;;;2.63;2.30;;;18.10;99.90;;;;;;4947467;29;20253;-75
2022/07/26 04:01:20;;;;;;;4.13;2.37;;;18.00;99.90;;;;;;4962933;23;20313;-77
2022/07/26 04:03:46;;;;;;;3.70;2.43;;;18.00;99.90;;;;;;4959556;28;20183;-77
2022/07/26 04:06:12;;;;;;;3.80;2.30;;;17.90;99.90;;;;;;4959090;28;20182;-77
2022/07/26 04:08:37;;;;;;;3.10;2.37;;;17.80;99.90;;;;;;4975280;28;20207;-77
2022/07/26 04:11:03;;;;;;;4.30;2.60;;;17.80;99.90;;;;;;4959230;28;20184;-77
2022/07/26 04:13:28;;;;;;;4.20;2.83;;;17.60;99.90;;;;;;4975473;28;20200;-77
2022/07/26 04:15:54;;;;;;;5.30;2.87;;;17.50;99.90;;;;;;4961690;28;20237;-78
2022/07/26 04:18:19;;;;;;;3.87;2.37;;;17.40;99.90;;;;;;4962835;28;20526;-77
2022/07/26 04:20:45;;;;;;;3.63;2.70;;;17.20;99.90;;;;;;4962987;28;20218;-77
2022/07/26 04:23:11;;;;;;;3.77;2.47;;;17.30;99.90;;;;;;4962744;28;20207;-76
2022/07/26 04:25:37;;;;;;;4.53;2.80;;;17.20;99.90;;;;;;4962717;28;20175;-76
2022/07/26 04:28:02;;;;;;;3.97;2.67;;;17.30;99.90;;;;;;4962430;28;20179;-77
2022/07/26 04:30:28;;;;;;;2.90;2.47;;;17.40;99.90;;;;;;4962792;28;20175;-77
2022/07/26 04:32:54;;;;;;;3.37;2.33;;;17.40;99.90;;;;;;4962528;28;20231;-76
2022/07/26 04:35:20;;;;;;;6.10;2.50;;;17.40;99.90;;;;;;4962664;28;20183;-77
2022/07/26 04:37:46;;;;;;;4.23;2.50;;;17.40;99.90;;;;;;4978316;28;20195;-77
2022/07/26 04:40:16;;;;;;;3.10;2.70;;;17.50;99.90;;;;;;4962379;28;20756;-77
2022/07/26 04:42:42;;;;;;;4.33;2.57;;;17.40;99.90;;;;;;4996013;28;20188;-77
2022/07/26 04:45:09;;;;;;;4.90;2.70;;;17.50;99.90;;;;;;4962251;28;20180;-77
2022/07/26 04:47:35;;;;;;;4.43;2.37;;;17.60;99.90;;;;;;4978493;28;20230;-77
2022/07/26 04:50:01;;;;;;;3.23;2.60;;;17.70;99.90;;;;;;4962613;28;20654;-78
2022/07/26 04:52:27;;;;;;;3.80;2.43;;;17.80;99.90;;;;;;4962307;28;20203;-77
2022/07/26 04:54:52;;;;;;;3.43;2.23;;;17.80;99.90;;;;;;4978580;28;20183;-77
2022/07/26 04:57:18;;;;;;;3.37;2.30;;;17.90;99.90;;;;;;4978522;28;20187;-77
2022/07/26 04:59:43;;;;;;;3.60;2.33;;;17.90;99.90;;;;;;4995982;28;20211;-77
2022/07/26 05:02:09;;;;;;;3.77;2.27;;;18.00;99.90;;;;;;4978110;28;20215;-77
2022/07/26 05:04:34;;;;;;;3.70;2.57;;;18.10;99.90;;;;;;4978494;28;20186;-77
2022/07/26 05:07:03;;;;;;;4.03;2.40;;;18.10;99.90;;;;;;4962358;28;20190;-77
2022/07/26 05:09:29;;;;;;;3.53;2.10;;;18.20;99.90;;;;;;4962241;28;20651;-77
2022/07/26 05:11:54;;;;;;;4.07;2.20;;;18.20;99.90;;;;;;4978292;28;20200;-77
2022/07/26 05:14:20;;;;;;;4.63;2.10;;;18.30;99.90;;;;;;4961888;28;20226;-77
2022/07/26 05:16:46;;;;;;;2.63;2.20;;;18.40;99.90;;;;;;4961918;28;20190;-76
2022/07/26 05:19:12;;;;;;;5.17;2.23;;;18.30;99.90;;;;;;4977449;28;20179;-76
2022/07/26 05:21:38;;;;;;;3.43;2.10;;;18.30;99.90;;;;;;4994930;28;20603;-76
2022/07/26 05:24:04;;;;;;;4.70;2.20;;;18.30;99.90;;;;;;4961418;28;20705;-77
2022/07/26 05:26:30;;;;;;;4.13;2.10;;;18.40;99.90;;;;;;4976937;28;20179;-75
2022/07/26 05:28:56;;;;;;;5.67;1.90;;;18.40;99.90;;;;;;4961551;28;20186;-76
2022/07/26 05:31:22;;;;;;;4.47;1.83;;;18.50;99.90;;;;;;4994845;28;20180;-77
2022/07/26 05:33:47;;;;;;;2.90;2.00;;;18.50;99.90;;;;;;4994805;28;20214;-76
2022/07/26 05:36:13;;;;;;;2.13;1.80;;;18.60;99.90;;;;;;4961046;28;20186;-76
2022/07/26 05:38:38;;;;;;;3.70;1.67;;;18.70;99.90;;;;;;4961111;28;20186;-75
2022/07/26 05:41:04;;;;;;;5.27;1.80;;;18.70;99.90;;;;;;4960956;28;20207;-76
2022/07/26 05:43:30;;;;;;;3.73;1.90;;;18.60;99.90;;;;;;4960967;28;20210;-75
2022/07/26 05:45:56;;;;;;;3.80;1.93;;;18.60;99.90;;;;;;4977016;28;20186;-76
2022/07/26 05:48:22;;;;;;;3.63;1.80;;;18.60;99.90;;;;;;4960628;28;20180;-75
2022/07/26 05:50:48;;;;;;;4.83;1.50;;;18.70;99.90;;;;;;4976816;28;20180;-75
2022/07/26 05:53:14;;;;;;;2.07;1.67;;;18.70;99.90;;;;;;4960409;28;20206;-76
2022/07/26 05:55:40;;;;;;;4.03;2.10;;;18.70;99.90;;;;;;4960873;28;20199;-77
2022/07/26 05:58:05;;;;;;;2.73;1.50;;;18.70;99.90;;;;;;4994162;28;20180;-76
2022/07/26 06:00:31;;;;;;;3.10;1.90;;;18.80;99.90;;;;;;4960757;28;20222;-76
2022/07/26 06:02:57;;;;;;;3.80;1.50;;;18.90;99.90;;;;;;4976580;28;20634;-76
2022/07/26 06:05:22;;;;;;;3.83;1.73;;;18.80;99.90;;;;;;4960795;28;20219;-76
2022/07/26 06:07:48;;;;;;;3.63;1.50;;;18.90;99.90;;;;;;4976473;28;20180;-76
2022/07/26 06:10:13;;;;;;;3.73;1.77;;;19.00;99.90;;;;;;4960968;28;20636;-76
2022/07/26 06:12:39;;;;;;;3.00;1.97;;;19.00;99.90;;;;;;4960620;28;20644;-76
2022/07/26 06:15:05;;;;;;;2.23;1.70;;;19.10;99.90;;;;;;4976495;28;20204;-76
2022/07/26 06:17:31;;;;;;;4.23;1.53;;;19.10;99.90;;;;;;4993545;28;20167;-76
2022/07/26 06:19:58;;;;;;;4.10;1.77;;;19.20;99.90;;;;;;4976335;28;20247;-76
2022/07/26 06:22:25;;;;;;;3.57;1.70;;;19.20;99.90;;;;;;4976399;28;20192;-76
2022/07/26 06:24:51;;;;;;;4.17;2.00;;;19.10;99.90;;;;;;4960349;28;20178;-76
2022/07/26 06:27:16;;;;;;;2.50;1.53;;;19.20;99.90;;;;;;4976247;28;20171;-77
2022/07/26 06:29:42;;;;;;;1.90;1.40;;;19.30;99.90;;;;;;4976357;28;20172;-76
2022/07/26 06:32:08;;;;;;;2.87;1.67;;;19.30;99.90;;;;;;4960060;28;20210;-76
2022/07/26 06:34:33;;;;;;;2.30;1.30;;;19.40;99.90;;;;;;4960137;28;20184;-77
2022/07/26 06:36:59;;;;;;;3.70;1.60;;;19.40;99.90;;;;;;4976103;28;20181;-76
2022/07/26 06:39:25;;;;;;;2.70;1.60;;;19.50;99.90;;;;;;4959908;28;20211;-76
2022/07/26 06:41:50;;;;;;;2.27;1.43;;;19.50;99.90;;;;;;4959933;28;20227;-76
2022/07/26 06:44:16;;;;;;;2.00;1.63;;;19.60;99.90;;;;;;4959910;28;20701;-76
2022/07/26 06:46:42;;;;;;;4.67;1.50;;;19.60;99.90;;;;;;4959723;28;20175;-77
2022/07/26 06:49:07;;;;;;;2.90;1.50;;;19.60;99.90;;;;;;4959922;28;20182;-76
2022/07/26 06:51:33;;;;;;;2.53;1.60;;;19.80;99.90;;;;;;4959448;28;20254;-76
2022/07/26 06:53:58;;;;;;;4.73;1.60;;;19.80;99.90;;;;;;4959907;28;20225;-76
2022/07/26 06:56:24;;;;;;;3.30;1.60;;;19.90;99.90;;;;;;4959599;28;20222;-76
2022/07/26 06:58:50;;;;;;;3.03;1.50;;;19.90;99.90;;;;;;4960002;28;20183;-76
2022/07/26 07:01:15;;;;;;;4.63;1.40;;;19.80;99.90;;;;;;4959562;28;20215;-76
2022/07/26 07:03:41;;;;;;;3.90;1.50;;;19.90;99.90;;;;;;4959770;28;20223;-76
2022/07/26 07:06:07;;;;;;;2.00;1.30;;;19.90;99.90;;;;;;4959710;28;20184;-77
2022/07/26 07:08:33;;;;;;;2.43;1.50;;;20.00;99.90;;;;;;4959680;28;20219;-76
2022/07/26 07:10:59;;;;;;;3.77;1.50;;;20.10;99.90;;;;;;4959644;28;20175;-76
2022/07/26 07:13:24;;;;;;;3.63;1.50;;;20.10;99.90;;;;;;4959613;28;20196;-76
2022/07/26 07:15:50;;;;;;;2.73;1.60;;;20.20;99.90;;;;;;4960127;28;20677;-75
2022/07/26 07:18:16;;;;;;;2.40;1.50;;;20.30;99.90;;;;;;4960363;28;20204;-75
2022/07/26 07:20:41;;;;;;;3.00;1.20;;;20.30;99.90;;;;;;4976579;28;20290;-75
2022/07/26 07:23:07;;;;;;;3.90;1.50;;;20.30;99.90;;;;;;4959431;28;20195;-77
2022/07/26 07:25:33;;;;;;;2.37;1.50;;;20.40;99.90;;;;;;4959756;28;20186;-76
2022/07/26 07:27:59;;;;;;;3.37;1.87;;;20.50;99.90;;;;;;4992740;28;20254;-76
2022/07/26 07:30:25;;;;;;;2.90;1.40;;;20.50;99.90;;;;;;4975494;28;20211;-76
2022/07/26 07:32:50;;;;;;;2.13;1.55;;;20.70;99.90;;;;;;4959425;28;20222;-76
2022/07/26 07:35:16;;;;;;;2.65;1.40;;;20.80;99.90;;;;;;4975608;28;20639;-76
2022/07/26 07:37:42;;;;;;;2.17;1.30;;;20.80;99.90;;;;;;4956697;28;20202;-76
2022/07/26 07:40:08;;;;;;;1.23;1.02;;;20.90;99.90;;;;;;4956264;28;20571;-76
2022/07/26 07:42:35;;;;;;;3.30;1.50;;;21.00;99.90;;;;;;4958812;28;20201;-75
2022/07/26 07:45:01;;;;;;;3.13;1.60;;;21.20;99.90;;;;;;4976002;28;20218;-76
2022/07/26 07:47:26;;;;;;;2.45;1.30;;;21.20;99.90;;;;;;4975390;28;20230;-77
2022/07/26 07:49:52;;;;;;;2.47;1.35;;;21.40;99.90;;;;;;4960996;28;20184;-76
2022/07/26 07:52:18;;;;;;;1.63;1.30;;;21.50;99.90;;;;;;4979832;28;20199;-76
2022/07/26 07:54:44;;;;;;;1.67;1.27;;;21.40;99.90;;;;;;4979894;28;20176;-75
2022/07/26 07:57:10;;;;;;;1.50;1.20;;;21.40;99.90;;;;;;4963736;28;20184;-75
2022/07/26 07:59:35;;;;;;;2.30;1.38;;;21.50;99.90;;;;;;4979760;28;20389;-76
2022/07/26 08:02:01;;;;;;;3.13;1.52;;;21.50;99.90;;;;;;4962317;28;20219;-76
2022/07/26 08:04:26;;;;;;;3.05;1.60;;;21.40;99.90;;;;;;4963369;28;20176;-76
2022/07/26 08:06:52;;;;;;;2.72;1.50;;;21.40;99.90;;;;;;4963542;28;20179;-75
2022/07/26 08:09:18;;;;;;;2.22;1.52;;;21.50;99.90;;;;;;4963421;28;20186;-76
2022/07/26 08:11:44;;;;;;;1.65;1.20;;;21.40;99.90;;;;;;4997269;28;20670;-75
2022/07/26 08:14:10;;;;;;;4.03;1.65;;;21.60;99.90;;;;;;4963791;28;20184;-76
2022/07/26 08:16:35;;;;;;;3.72;1.40;;;21.60;99.90;;;;;;4963159;28;20642;-75
2022/07/26 08:19:01;;;;;;;1.48;1.30;;;21.30;99.90;;;;;;4963140;28;20176;-75
2022/07/26 08:21:26;;;;;;;2.08;1.33;;;21.30;99.90;;;;;;4963008;28;20787;-76
2022/07/26 08:23:52;;;;;;;1.40;1.30;;;21.50;99.90;;;;;;4963201;28;20184;-76
2022/07/26 08:26:18;;;;;;;1.50;1.40;;;21.60;99.90;;;;;;4978964;28;20183;-76
2022/07/26 08:28:43;;;;;;;2.55;1.25;;;21.50;99.90;;;;;;4963132;28;20523;-76
2022/07/26 08:31:09;;;;;;;1.85;1.40;;;21.70;99.90;;;;;;4962791;28;20202;-75
2022/07/26 08:33:35;;;;;;;1.80;1.30;;;22.00;99.90;;;;;;4962837;28;20180;-76
2022/07/26 08:36:00;;;;;;;1.95;1.50;;;22.20;99.90;;;;;;4979202;28;20186;-76
2022/07/26 08:38:26;;;;;;;4.30;1.30;;;22.50;99.90;;;;;;4979012;28;20192;-76
2022/07/26 08:40:53;;;;;;;2.17;1.30;;;22.50;99.90;;;;;;4963055;28;20253;-76
2022/07/26 08:43:18;;;;;;;1.40;1.25;;;22.80;99.90;;;;;;4963054;28;20282;-76
2022/07/26 08:45:46;;;;;;;1.70;1.30;;;22.60;99.90;;;;;;4962582;28;20211;-76
2022/07/26 08:48:11;;;;;;;3.08;1.20;;;22.50;99.90;;;;;;4978353;28;20586;-76
2022/07/26 08:50:38;;;;;;;2.78;1.20;;;22.60;99.90;;;;;;4962576;28;20658;-76
2022/07/26 08:53:08;;;;;;;1.45;1.10;;;22.70;99.90;;;;;;4978561;28;20289;-76
2022/07/26 08:55:34;;;;;;;4.45;1.30;;;22.80;99.90;;;;;;4947569;28;20175;-76
2022/07/26 08:58:02;;;;;;;2.95;1.00;;;22.90;99.90;;;;;;4978333;28;20765;-76
2022/07/26 09:00:29;;;;;;;2.00;1.25;;;23.10;99.90;;;;;;4962763;28;20257;-75
2022/07/26 09:02:56;;;;;;;2.33;1.23;;;23.10;99.90;;;;;;4961749;28;20213;-76
2022/07/26 09:05:31;;;;;;;1.17;1.10;;;23.20;99.90;;;;;;4963139;28;20180;-76
2022/07/26 09:07:58;;;;;;;1.88;1.20;;;23.40;99.90;;;;;;4962983;28;20171;-75
2022/07/26 09:10:24;;;;;;;1.85;1.40;;;23.50;99.90;;;;;;4946944;28;20191;-75
2022/07/26 09:12:55;;;;;;;2.28;1.20;;;23.70;99.90;;;;;;4962614;28;20202;-75
2022/07/26 09:15:23;;;;;;;2.63;1.48;;;23.70;99.90;;;;;;4979088;28;20643;-75
2022/07/26 09:17:52;;;;;;;1.30;1.13;;;23.60;99.90;;;;;;4996106;28;20182;-75
2022/07/26 09:20:24;;;;;;;1.30;1.20;;;23.50;99.90;;;;;;4963390;28;20610;-75
2022/07/26 09:23:01;;;;;;;1.40;1.30;;;23.80;99.90;;;;;;4979320;28;20206;-75
2022/07/26 09:25:29;;;;;;;1.75;1.33;;;24.10;99.90;;;;;;4979154;28;20206;-75
2022/07/26 09:27:56;;;;;;;1.30;1.20;;;23.90;99.90;;;;;;4946311;28;20187;-74
2022/07/26 09:30:21;;;;;;;1.30;1.20;;;23.50;99.90;;;;;;4978349;28;20257;-75
2022/07/26 09:32:57;;;;;;;1.35;1.20;;;23.10;99.90;;;;;;4962510;28;20670;-75
2022/07/26 09:35:23;;;;;;;1.60;1.50;;;23.10;99.90;;;;;;4978560;28;20180;-75
2022/07/26 09:37:49;;;;;;;1.92;1.40;;;23.70;99.90;;;;;;4962202;28;20183;-75
2022/07/26 09:40:16;;;;;;;1.90;1.60;;;24.10;99.90;;;;;;4946642;28;20203;-75
2022/07/26 09:43:03;;;;;;;2.70;1.50;;;24.50;99.90;;;;;;4962018;28;20244;-75
2022/07/26 09:45:30;;;;;;;2.20;1.50;;;24.10;99.90;;;;;;4947519;28;20176;-75
2022/07/26 09:47:56;;;;;;;1.75;1.58;;;23.80;99.90;;;;;;4978214;28;20175;-75
2022/07/26 09:50:25;;;;;;;1.70;1.60;;;23.30;99.90;;;;;;4978152;28;20184;-75
2022/07/26 09:53:16;;;;;;;2.05;1.70;;;23.20;99.90;;;;;;4978509;28;20283;-75
2022/07/26 09:55:45;;;;;;;2.03;1.52;;;23.60;99.90;;;;;;4956907;28;20184;-75
2022/07/26 09:58:13;;;;;;;2.35;1.52;;;24.10;99.90;;;;;;4995542;28;20186;-75
2022/07/26 10:00:39;;;;;;;3.03;1.58;;;24.60;99.40;;;;;;4978870;28;20200;-74
2022/07/26 10:03:05;;;;;;;2.97;1.70;;;24.90;98.50;;;;;;5015895;23;20218;-75
2022/07/26 10:05:31;;;;;;;1.60;1.50;;;24.80;98.30;;;;;;5016459;28;20183;-75
2022/07/26 10:07:58;;;;;;;1.90;1.63;;;24.10;99.90;;;;;;5000053;28;20248;-75
2022/07/26 10:10:38;;;;;;;2.15;1.65;;;23.90;99.90;;;;;;5016822;28;20179;-75
2022/07/26 10:13:06;;;;;;;1.65;1.55;;;24.00;99.90;;;;;;5002367;28;20191;-75
2022/07/26 10:15:36;;;;;;;2.85;1.80;;;24.00;99.90;;;;;;4980408;28;20190;-75
2022/07/26 10:18:07;;;;;;;3.85;1.92;;;23.90;99.90;;;;;;4996296;28;20177;-75
2022/07/26 10:20:43;;;;;;;2.40;1.90;;;24.10;99.90;;;;;;4996244;28;20211;-75
2022/07/26 10:23:34;;;;;;;2.58;1.83;;;24.50;99.90;;;;;;4996206;28;20218;-74
2022/07/26 10:26:00;;;;;;;1.75;1.58;;;24.60;99.90;;;;;;5013912;28;20175;-73
2022/07/26 10:28:29;;;;;;;2.05;1.80;;;24.50;99.70;;;;;;5013461;28;20175;-72
2022/07/26 10:31:25;;;;;;;2.03;1.80;;;24.30;99.60;;;;;;4996362;28;20254;-74
2022/07/26 10:33:52;;;;;;;2.50;1.75;;;24.00;99.90;;;;;;4979925;28;20175;-74
2022/07/26 10:36:22;;;;;;;3.03;1.90;;;23.80;99.90;;;;;;4979808;28;20221;-73
2022/07/26 10:39:04;;;;;;;2.20;1.58;;;23.60;99.90;;;;;;4979809;28;20713;-74
2022/07/26 10:41:36;;;;;;;3.05;1.90;;;23.50;99.90;;;;;;4979909;28;20360;-73
2022/07/26 10:44:19;;;;;;;2.78;1.65;;;23.40;99.90;;;;;;4996146;28;20249;-73
2022/07/26 10:46:58;;;;;;;2.55;2.10;;;23.30;99.90;;;;;;4995854;28;20167;-73
2022/07/26 10:49:36;;;;;;;2.33;2.13;;;23.10;99.90;;;;;;4996234;28;20672;-73
2022/07/26 10:52:07;;;;;;;2.45;1.75;;;23.10;99.90;;;;;;4996470;28;20249;-73
2022/07/26 10:54:55;;;;;;;2.45;1.98;;;23.20;99.90;;;;;;4995784;28;20175;-73
2022/07/26 10:57:27;;;;;;;3.67;1.90;;;23.30;99.90;;;;;;5012866;28;20188;-73
2022/07/26 10:59:57;;;;;;;2.33;1.75;;;23.50;99.90;;;;;;4979310;28;20225;-73
2022/07/26 11:02:27;;;;;;;3.50;1.85;;;23.50;99.90;;;;;;4995645;28;20238;-73
2022/07/26 11:05:02;;;;;;;3.55;2.00;;;23.40;99.90;;;;;;4980255;28;20171;-74
2022/07/26 11:07:28;;;;;;;2.33;1.90;;;23.30;99.90;;;;;;5012828;28;20170;-74
2022/07/26 11:09:55;;;;;;;1.92;1.70;;;23.10;99.90;;;;;;4995383;28;20274;-74
2022/07/26 11:12:21;;;;;;;2.95;1.90;;;23.00;99.90;;;;;;4995553;28;20207;-74
2022/07/26 11:14:47;;;;;;;2.05;1.80;;;22.90;99.90;;;;;;4995817;28;20229;-75
2022/07/26 11:17:26;;;;;;;2.88;1.80;;;22.80;99.90;;;;;;4995318;28;20198;-75
2022/07/26 11:19:53;;;;;;;2.88;2.03;;;22.80;99.90;;;;;;4995192;28;20297;-75
2022/07/26 11:22:19;;;;;;;2.10;1.90;;;22.80;99.90;;;;;;4995204;28;20213;-75
2022/07/26 11:24:45;;;;;;;2.65;2.15;;;22.90;99.90;;;;;;4962354;28;20583;-75
2022/07/26 11:27:11;;;;;;;2.15;1.92;;;23.00;99.90;;;;;;4995505;28;20221;-75
2022/07/26 11:29:38;;;;;;;3.17;1.92;;;23.10;99.90;;;;;;4995404;28;20180;-75
2022/07/26 11:32:05;;;;;;;3.22;1.80;;;23.20;99.90;;;;;;4978950;28;20206;-75
2022/07/26 11:34:33;;;;;;;2.28;1.80;;;23.50;99.90;;;;;;4995448;28;20175;-75
2022/07/26 11:37:01;;;;;;;3.33;1.98;;;23.70;99.90;;;;;;5012621;28;20178;-75
2022/07/26 11:39:34;;;;;;;2.30;2.10;;;23.90;99.90;;;;;;4963121;28;20175;-75
2022/07/26 11:42:10;;;;;;;2.38;2.10;;;24.10;99.90;;;;;;4979225;28;20191;-75
2022/07/26 11:44:36;;;;;;;2.30;2.10;;;24.10;99.90;;;;;;4996737;28;20583;-75
2022/07/26 11:47:34;;;;;;;3.53;2.10;;;24.10;99.90;;;;;;4994741;28;20183;-75
2022/07/26 11:50:05;;;;;;;3.35;2.15;;;23.90;99.90;;;;;;4979262;28;20175;-75
2022/07/26 11:52:31;;;;;;;2.25;2.05;;;23.70;99.90;;;;;;5012663;28;20560;-75
2022/07/26 11:54:56;;;;;;;3.05;2.22;;;23.70;99.90;;;;;;4995327;28;20175;-75
2022/07/26 11:57:30;;;;;;;2.58;2.25;;;23.50;99.90;;;;;;4962475;28;20201;-75
2022/07/26 11:59:57;;;;;;;3.08;2.40;;;23.40;99.90;;;;;;4994982;28;20294;-75
2022/07/26 12:02:23;;;;;;;2.92;2.35;;;23.30;99.90;;;;;;4995012;28;20238;-75
2022/07/26 12:05:08;;;;;;;3.55;2.20;;;23.20;99.90;;;;;;4995042;28;20210;-75
2022/07/26 12:07:34;;;;;;;2.55;2.33;;;23.10;99.90;;;;;;4994548;28;20261;-75
2022/07/26 12:10:00;;;;;;;4.05;2.40;;;23.10;99.90;;;;;;4962560;28;20269;-75
2022/07/26 12:12:28;;;;;;;3.13;2.40;;;23.00;99.90;;;;;;4962795;28;20210;-76
2022/07/26 12:15:05;;;;;;;2.58;2.10;;;22.90;99.90;;;;;;4994902;28;20680;-76
2022/07/26 12:17:31;;;;;;;2.78;2.38;;;22.90;99.90;;;;;;4978123;28;20663;-76
2022/07/26 12:20:12;;;;;;;3.05;2.70;;;22.90;99.90;;;;;;4994663;28;20253;-76
2022/07/26 12:22:38;;;;;;;3.42;2.95;;;22.80;99.90;;;;;;4994982;28;20191;-76
2022/07/26 12:25:04;;;;;;;2.95;2.67;;;22.70;99.90;;;;;;4962556;28;20179;-76
2022/07/26 12:27:32;;;;;;;3.42;2.75;;;22.60;99.90;;;;;;5012141;28;20189;-76
2022/07/26 12:37:10;;;;;;;4.07;3.30;;;22.40;99.90;;;;;;5014071;28;20222;-76
2022/07/26 12:39:36;;;;;;;4.15;3.05;;;22.30;99.90;;;;;;4998289;28;20175;-75
2022/07/26 12:45:27;;;;;;;3.88;2.90;;;22.30;99.90;;;;;;5015713;28;20232;-76
2022/07/26 12:47:54;;;;;;;4.80;3.05;;;22.30;99.90;;;;;;4998087;28;20317;-76
2022/07/26 12:50:22;;;;;;;3.30;3.00;;;22.40;99.90;;;;;;4981822;28;20302;-75
2022/07/26 12:52:48;;;;;;;3.83;3.08;;;22.40;99.90;;;;;;4997876;28;20686;-76
2022/07/26 12:55:16;;;;;;;3.30;3.00;;;22.50;99.90;;;;;;4997886;28;20178;-76
2022/07/26 12:57:43;;;;;;;6.00;3.50;;;22.50;99.90;;;;;;4965664;28;20179;-75
2022/07/26 13:00:10;;;;;;;5.97;3.75;;;22.60;99.90;;;;;;4982234;28;20688;-76
2022/07/26 13:02:37;;;;;;;4.03;3.63;;;22.70;99.90;;;;;;4965567;28;20214;-75